| time (UTC) | temp C | wind direction | speed KPH | gust KPH | rain 1hr cm | rain 24hr cm | rain mn cm | humidity % | barometer mb |
| 20260508104532 | 6 | 116 | 4.8 | 11.3 | 0.00 | 0.00 | 0.00 | 78 | 1015.3 |
| 20260508103030 | 6 | 129 | 1.6 | 9.7 | 0.00 | 0.00 | 0.00 | 76 | 1015.3 |
| 20260508101534 | 6 | 162 | 4.8 | 11.3 | 0.00 | 0.00 | 0.00 | 74 | 1015.4 |
| 20260508100032 | 7 | 169 | 1.6 | 6.4 | 0.00 | 0.00 | 0.00 | 70 | 1015.4 |
| 20260508094532 | 8 | 111 | 1.6 | 6.4 | 0.00 | 0.00 | 0.00 | 68 | 1015.6 |
| 20260508091531 | 8 | 266 | 3.2 | 12.9 | 0.00 | 0.00 | 0.00 | 65 | 1015.6 |
| 20260508090105 | 8 | 212 | 1.6 | 9.7 | 0.00 | 0.00 | 0.00 | 62 | 1015.4 |
| 20260508084537 | 10 | 170 | 0.0 | 6.4 | 0.00 | 0.00 | 0.00 | 58 | 1015.6 |
| 20260508081535 | 10 | 292 | 4.8 | 11.3 | 0.00 | 0.00 | 0.00 | 54 | 1015.7 |
| 20260508074532 | 12 | 294 | 4.8 | 11.3 | 0.00 | 0.00 | 0.00 | 47 | 1015.9 |
| 20260508070052 | 14 | 270 | 9.7 | 20.9 | 0.00 | 0.00 | 0.00 | 44 | 1016.0 |
| 20260508064533 | 14 | 263 | 11.3 | 20.9 | 0.00 | 0.00 | 0.00 | 44 | 1016.0 |
| 20260508063030 | 15 | 268 | 11.3 | 22.5 | 0.00 | 0.00 | 0.00 | 44 | 1016.0 |
| 20260508061649 | 15 | 276 | 11.3 | 19.3 | 0.00 | 0.00 | 0.00 | 43 | 1016.0 |
| 20260508060030 | 15 | 276 | 9.7 | 19.3 | 0.00 | 0.00 | 0.00 | 42 | 1016.1 |
| 20260508054532 | 16 | 279 | 11.3 | 24.1 | 0.00 | 0.00 | 0.00 | 41 | 1016.1 |
| 20260508053032 | 16 | 277 | 12.9 | 29.0 | 0.00 | 0.00 | 0.00 | 41 | 1016.2 |
| 20260508051529 | 16 | 276 | 14.5 | 30.6 | 0.00 | 0.00 | 0.00 | 42 | 1016.1 |
| 20260508050030 | 16 | 278 | 14.5 | 29.0 | 0.00 | 0.00 | 0.00 | 42 | 1016.1 |
| 20260508043030 | 16 | 262 | 14.5 | 25.7 | 0.00 | 0.00 | 0.00 | 42 | 1016.1 |
| 20260508041531 | 16 | 266 | 12.9 | 24.1 | 0.00 | 0.00 | 0.00 | 41 | 1016.0 |
| 20260508040031 | 16 | 267 | 12.9 | 24.1 | 0.00 | 0.00 | 0.00 | 40 | 1015.9 |
| 20260508034533 | 16 | 271 | 12.9 | 25.7 | 0.00 | 0.00 | 0.00 | 38 | 1015.7 |
| 20260508033029 | 16 | 281 | 11.3 | 19.3 | 0.00 | 0.00 | 0.00 | 35 | 1015.6 |
| 20260508031533 | 17 | 282 | 9.7 | 19.3 | 0.00 | 0.00 | 0.00 | 32 | 1015.6 |
| 20260508030031 | 17 | 288 | 12.9 | 25.7 | 0.00 | 0.00 | 0.00 | 30 | 1015.6 |
| 20260508023030 | 18 | 287 | 16.1 | 27.4 | 0.00 | 0.00 | 0.00 | 28 | 1015.6 |
| 20260508021529 | 18 | 286 | 12.9 | 22.5 | 0.00 | 0.00 | 0.00 | 28 | 1015.5 |
| 20260508020030 | 20 | 289 | 14.5 | 29.0 | 0.00 | 0.00 | 0.00 | 26 | 1015.6 |
| 20260508014529 | 20 | 286 | 16.1 | 32.2 | 0.00 | 0.00 | 0.00 | 25 | 1015.6 |
| 20260508013032 | 21 | 289 | 16.1 | 30.6 | 0.00 | 0.00 | 0.00 | 25 | 1015.7 |
| 20260508011606 | 20 | 287 | 16.1 | 30.6 | 0.00 | 0.00 | 0.00 | 25 | 1015.9 |
| 20260508010036 | 20 | 289 | 16.1 | 30.6 | 0.00 | 0.00 | 0.00 | 25 | 1015.9 |
| 20260508003034 | 20 | 284 | 17.7 | 32.2 | 0.00 | 0.00 | 0.00 | 24 | 1015.8 |
| 20260508001650 | 21 | 284 | 17.7 | 38.6 | 0.00 | 0.00 | 0.00 | 22 | 1015.9 |
| 20260508000031 | 22 | 285 | 17.7 | 38.6 | 0.00 | 0.00 | 0.00 | 22 | 1015.9 |
| 20260507234530 | 22 | 285 | 16.1 | 33.8 | 0.00 | 0.00 | 0.00 | 22 | 1016.0 |
| 20260507231529 | 21 | 283 | 19.3 | 41.8 | 0.00 | 0.00 | 0.00 | 23 | 1015.9 |
| 20260507224529 | 22 | 286 | 20.9 | 40.2 | 0.00 | 0.00 | 0.00 | 27 | 1016.1 |
| 20260507223030 | 22 | 283 | 20.9 | 40.2 | 0.00 | 0.00 | 0.00 | 29 | 1016.2 |
| 20260507221608 | 22 | 287 | 17.7 | 35.4 | 0.00 | 0.00 | 0.00 | 31 | 1016.4 |
| 20260507220033 | 22 | 289 | 19.3 | 35.4 | 0.00 | 0.00 | 0.00 | 32 | 1016.6 |
| 20260507213149 | 21 | 281 | 20.9 | 37.0 | 0.00 | 0.00 | 0.00 | 36 | 1016.8 |
| 20260507210031 | 21 | 284 | 24.1 | 40.2 | 0.00 | 0.00 | 0.00 | 37 | 1016.7 |
| 20260507204534 | 20 | 285 | 20.9 | 38.6 | 0.00 | 0.00 | 0.00 | 38 | 1016.8 |
| 20260507203032 | 20 | 287 | 22.5 | 49.9 | 0.00 | 0.00 | 0.00 | 39 | 1016.9 |
| 20260507201531 | 20 | 284 | 20.9 | 41.8 | 0.00 | 0.00 | 0.00 | 40 | 1017.0 |
| 20260507200033 | 19 | 287 | 20.9 | 37.0 | 0.00 | 0.00 | 0.00 | 41 | 1017.2 |
| 20260507194533 | 18 | 281 | 19.3 | 41.8 | 0.00 | 0.00 | 0.00 | 44 | 1017.3 |
| 20260507193148 | 18 | 279 | 20.9 | 37.0 | 0.00 | 0.00 | 0.00 | 47 | 1017.5 |
| 20260507191530 | 17 | 288 | 20.9 | 38.6 | 0.00 | 0.00 | 0.00 | 49 | 1017.7 |
| 20260507190032 | 17 | 286 | 20.9 | 35.4 | 0.00 | 0.00 | 0.00 | 51 | 1018.1 |
| 20260507184534 | 17 | 281 | 12.9 | 27.4 | 0.00 | 0.00 | 0.00 | 53 | 1018.7 |
| 20260507174649 | 16 | 273 | 14.5 | 32.2 | 0.00 | 0.00 | 0.00 | 58 | 1018.7 |
| 20260507173029 | 15 | 279 | 14.5 | 32.2 | 0.00 | 0.00 | 0.00 | 59 | 1018.8 |
| 20260507171534 | 15 | 273 | 19.3 | 35.4 | 0.00 | 0.00 | 0.00 | 60 | 1018.9 |
| 20260507170034 | 14 | 278 | 19.3 | 38.6 | 0.00 | 0.00 | 0.00 | 63 | 1018.7 |
| 20260507163031 | 13 | 279 | 24.1 | 40.2 | 0.00 | 0.00 | 0.00 | 66 | 1018.8 |
| 20260507161643 | 13 | 282 | 20.9 | 40.2 | 0.00 | 0.00 | 0.00 | 69 | 1018.8 |
| 20260507160035 | 12 | 281 | 20.9 | 40.2 | 0.00 | 0.00 | 0.00 | 70 | 1018.8 |
| 20260507154528 | 12 | 277 | 20.9 | 41.8 | 0.00 | 0.00 | 0.00 | 72 | 1018.8 |
| 20260507153031 | 12 | 282 | 20.9 | 37.0 | 0.00 | 0.00 | 0.00 | 73 | 1018.9 |
| 20260507151534 | 12 | 281 | 20.9 | 37.0 | 0.00 | 0.00 | 0.00 | 74 | 1019.0 |
| 20260507143035 | 11 | 288 | 16.1 | 33.8 | 0.00 | 0.00 | 0.00 | 79 | 1018.9 |
| 20260507141530 | 11 | 284 | 14.5 | 29.0 | 0.00 | 0.00 | 0.00 | 80 | 1018.8 |
| 20260507134538 | 10 | 289 | 14.5 | 29.0 | 0.00 | 0.00 | 0.00 | 81 | 1018.4 |
| 20260507133030 | 10 | 288 | 12.9 | 33.8 | 0.00 | 0.00 | 0.00 | 81 | 1018.2 |
| 20260507131536 | 10 | 290 | 14.5 | 32.2 | 0.00 | 0.00 | 0.00 | 81 | 1018.1 |
| 20260507130108 | 10 | 286 | 14.5 | 32.2 | 0.00 | 0.00 | 0.00 | 80 | 1018.0 |
| 20260507123034 | 11 | 273 | 12.9 | 25.7 | 0.00 | 0.00 | 0.00 | 79 | 1018.1 |
| 20260507121530 | 11 | 273 | 14.5 | 29.0 | 0.00 | 0.00 | 0.00 | 79 | 1018.2 |
| 20260507120207 | 11 | 274 | 16.1 | 37.0 | 0.00 | 0.00 | 0.00 | 79 | 1018.2 |
| 20260507111535 | 11 | 265 | 16.1 | 35.4 | 0.00 | 0.00 | 0.00 | 79 | 1018.0 |